createdAt,value
2024-05-09T00:01:38.172Z,99.90
2024-05-09T00:04:08.850Z,99.90
2024-05-09T00:06:39.211Z,99.90
2024-05-09T00:09:12.035Z,99.90
2024-05-09T00:11:42.437Z,99.90
2024-05-09T00:14:12.789Z,99.90
2024-05-09T00:16:43.150Z,99.90
2024-05-09T00:19:13.392Z,99.90
2024-05-09T00:21:45.598Z,99.90
2024-05-09T00:24:18.422Z,99.90
2024-05-09T00:26:48.579Z,99.90
2024-05-09T00:29:18.787Z,99.90
2024-05-09T00:31:49.033Z,99.90
2024-05-09T00:34:19.419Z,99.90
2024-05-09T00:36:49.691Z,99.90
2024-05-09T00:39:23.075Z,99.90
2024-05-09T00:41:53.326Z,99.90
2024-05-09T00:44:23.630Z,99.90
2024-05-09T00:46:56.138Z,99.90
2024-05-09T00:49:28.768Z,99.90
2024-05-09T00:52:00.744Z,99.90
2024-05-09T00:54:34.500Z,99.90
2024-05-09T00:57:06.191Z,99.90
2024-05-09T00:59:37.406Z,99.90
2024-05-09T01:02:08.990Z,99.90
2024-05-09T01:04:39.440Z,99.90
2024-05-09T01:07:10.011Z,99.90
2024-05-09T01:09:43.149Z,99.90
2024-05-09T01:12:13.601Z,99.90
2024-05-09T01:14:43.936Z,99.90
2024-05-09T01:17:14.532Z,99.90
2024-05-09T01:19:45.704Z,99.90
2024-05-09T01:22:16.002Z,99.90
2024-05-09T01:24:48.838Z,99.90
2024-05-09T01:27:18.954Z,99.90
2024-05-09T01:29:49.160Z,99.90
2024-05-09T01:32:19.507Z,99.90
2024-05-09T01:34:49.776Z,99.90
2024-05-09T01:37:19.983Z,99.90
2024-05-09T01:39:52.880Z,99.90
2024-05-09T01:42:23.153Z,99.90
2024-05-09T01:44:53.410Z,99.90
2024-05-09T01:47:23.738Z,99.90
2024-05-09T01:49:54.046Z,99.90
2024-05-09T01:52:24.295Z,99.90
2024-05-09T01:54:57.186Z,99.90
2024-05-09T01:57:27.353Z,99.90
2024-05-09T01:59:58.450Z,99.90
2024-05-09T02:02:28.723Z,99.90
2024-05-09T02:04:59.088Z,99.90
2024-05-09T02:07:30.133Z,99.90
2024-05-09T02:10:06.561Z,99.90
2024-05-09T02:12:39.622Z,99.90
2024-05-09T02:15:10.213Z,99.90
2024-05-09T02:17:40.615Z,99.90
2024-05-09T02:20:18.795Z,99.90
2024-05-09T02:22:57.447Z,99.90
2024-05-09T02:25:30.330Z,99.90
2024-05-09T02:28:00.605Z,99.90
2024-05-09T02:30:39.265Z,99.90
2024-05-09T02:33:10.773Z,99.90
2024-05-09T02:35:44.055Z,99.90
2024-05-09T02:38:14.931Z,99.90
2024-05-09T02:40:45.216Z,99.90
2024-05-09T02:43:15.612Z,99.90
2024-05-09T02:45:43.235Z,99.90
2024-05-09T02:48:14.350Z,99.90
2024-05-09T02:50:44.282Z,99.90
2024-05-09T02:53:15.368Z,99.90
2024-05-09T02:55:45.687Z,99.90
2024-05-09T02:58:16.098Z,99.90
2024-05-09T03:00:43.946Z,99.90
2024-05-09T03:03:15.676Z,99.90
2024-05-09T03:05:44.401Z,99.90
2024-05-09T03:08:15.198Z,99.90
2024-05-09T03:10:45.649Z,99.90
2024-05-09T03:13:16.857Z,99.90
2024-05-09T03:15:45.103Z,99.90
2024-05-09T03:18:15.895Z,99.90
2024-05-09T03:20:44.548Z,99.90
2024-05-09T03:23:15.224Z,99.90
2024-05-09T03:25:45.556Z,99.90
2024-05-09T03:28:15.889Z,99.90
2024-05-09T03:30:43.627Z,99.90
2024-05-09T03:33:15.369Z,99.90
2024-05-09T03:35:43.799Z,99.90
2024-05-09T03:38:14.147Z,99.90
2024-05-09T03:40:51.308Z,99.90
2024-05-09T03:43:22.174Z,99.90
2024-05-09T03:45:50.504Z,99.90
2024-05-09T03:48:21.036Z,99.90
2024-05-09T03:50:48.876Z,99.90
2024-05-09T03:53:19.539Z,99.90
2024-05-09T03:55:50.761Z,99.90
2024-05-09T03:58:21.026Z,99.90
2024-05-09T04:00:48.802Z,99.90
2024-05-09T04:03:19.364Z,99.90
2024-05-09T04:05:47.194Z,99.90
2024-05-09T04:08:17.891Z,99.90
2024-05-09T04:10:46.311Z,99.90
2024-05-09T04:13:19.199Z,99.90
2024-05-09T04:15:47.019Z,99.90
2024-05-09T04:18:19.629Z,99.90
2024-05-09T04:20:47.370Z,99.90
2024-05-09T04:23:17.730Z,99.90
2024-05-09T04:25:46.721Z,99.90
2024-05-09T04:28:19.715Z,99.90
2024-05-09T04:30:47.323Z,99.90
2024-05-09T04:33:19.909Z,99.90
2024-05-09T04:35:49.453Z,99.90
2024-05-09T04:38:19.775Z,99.90
2024-05-09T04:40:47.456Z,99.90
2024-05-09T04:43:21.535Z,99.90
2024-05-09T04:45:49.223Z,99.90
2024-05-09T04:48:19.551Z,99.90
2024-05-09T04:50:47.352Z,99.90
2024-05-09T04:53:19.411Z,99.90
2024-05-09T04:55:47.263Z,99.90
2024-05-09T04:58:20.093Z,99.90
2024-05-09T05:00:47.782Z,99.90
2024-05-09T05:03:18.638Z,99.90
2024-05-09T05:05:46.668Z,99.90
2024-05-09T05:08:18.413Z,99.90
2024-05-09T05:10:47.956Z,99.90
2024-05-09T05:13:25.190Z,99.90
2024-05-09T05:15:57.232Z,99.90
2024-05-09T05:18:29.438Z,99.90
2024-05-09T05:20:57.877Z,99.90
2024-05-09T05:23:28.367Z,99.90
2024-05-09T05:25:56.114Z,99.90
2024-05-09T05:28:29.234Z,99.90
2024-05-09T05:30:56.797Z,99.90
2024-05-09T05:33:27.243Z,99.90
2024-05-09T05:35:54.992Z,99.90
2024-05-09T05:38:28.097Z,99.90
2024-05-09T05:40:58.970Z,99.90
2024-05-09T05:43:29.690Z,99.90
2024-05-09T05:45:59.920Z,99.90
2024-05-09T05:48:30.267Z,99.90
2024-05-09T05:50:59.440Z,99.90
2024-05-09T05:53:31.341Z,99.90
2024-05-09T05:55:59.075Z,99.90
2024-05-09T05:58:31.876Z,99.90
2024-05-09T06:01:00.074Z,99.90
2024-05-09T06:03:31.370Z,99.90
2024-05-09T06:06:03.401Z,99.90
2024-05-09T06:08:33.774Z,99.90
2024-05-09T06:11:01.782Z,99.90
2024-05-09T06:13:34.779Z,99.90
2024-05-09T06:16:04.868Z,99.90
2024-05-09T06:18:35.306Z,99.90
2024-05-09T06:21:05.854Z,99.90
2024-05-09T06:23:33.620Z,99.90
2024-05-09T06:26:04.001Z,99.90
2024-05-09T06:28:36.417Z,99.90
2024-05-09T06:31:06.705Z,99.90
2024-05-09T06:33:34.646Z,99.90
2024-05-09T06:36:05.007Z,99.90
2024-05-09T06:38:34.156Z,99.90
2024-05-09T06:41:04.591Z,99.90
2024-05-09T06:43:35.302Z,99.90
2024-05-09T06:46:05.571Z,99.90
2024-05-09T06:48:33.383Z,99.90
2024-05-09T06:51:03.704Z,99.90
2024-05-09T06:53:31.306Z,99.90
2024-05-09T06:56:01.593Z,99.90
2024-05-09T06:58:29.183Z,99.90
2024-05-09T07:01:02.146Z,99.90
2024-05-09T07:03:30.534Z,99.90
2024-05-09T07:06:00.908Z,99.90
2024-05-09T07:08:28.549Z,99.90
2024-05-09T07:10:58.864Z,99.90
2024-05-09T07:13:26.484Z,99.90
2024-05-09T07:15:56.698Z,99.90
2024-05-09T07:18:27.050Z,99.90
2024-05-09T07:20:57.362Z,99.90
2024-05-09T07:23:25.117Z,99.90
2024-05-09T07:25:55.785Z,99.90
2024-05-09T07:28:23.434Z,99.90
2024-05-09T07:30:53.714Z,99.90
2024-05-09T07:33:23.411Z,99.90
2024-05-09T07:35:57.387Z,99.90
2024-05-09T07:38:25.163Z,99.90
2024-05-09T07:40:55.411Z,99.90
2024-05-09T07:43:23.206Z,99.90
2024-05-09T07:45:55.355Z,99.90
2024-05-09T07:53:07.598Z,99.90
2024-05-09T07:53:52.140Z,99.90
2024-05-09T07:56:26.280Z,99.90
2024-05-09T07:58:55.393Z,99.90
2024-05-09T08:01:27.232Z,99.90
2024-05-09T08:03:55.303Z,99.90
2024-05-09T08:06:28.949Z,99.90
2024-05-09T08:08:57.866Z,99.90
2024-05-09T08:11:29.914Z,99.90
2024-05-09T08:13:57.605Z,99.90
2024-05-09T08:16:27.946Z,99.90
2024-05-09T08:18:55.636Z,99.90
2024-05-09T08:21:29.719Z,99.90
2024-05-09T08:23:57.477Z,99.90
2024-05-09T08:26:27.651Z,99.90
2024-05-09T08:28:55.324Z,99.90
2024-05-09T08:34:28.737Z,99.90
2024-05-09T08:37:03.746Z,99.90
2024-05-09T08:39:40.122Z,99.90
2024-05-09T08:42:08.839Z,99.90
2024-05-09T08:44:40.256Z,99.90
2024-05-09T08:47:09.917Z,99.90
2024-05-09T08:49:41.557Z,99.90
2024-05-09T08:52:13.209Z,99.90
2024-05-09T08:54:44.982Z,99.90
2024-05-09T08:57:13.704Z,99.90
2024-05-09T08:59:50.868Z,99.90
2024-05-09T09:02:23.099Z,99.90
2024-05-09T09:04:59.706Z,99.90
2024-05-09T09:07:31.752Z,99.90
2024-05-09T09:10:04.060Z,99.90
2024-05-09T09:12:33.143Z,99.90
2024-05-09T09:15:03.490Z,99.90
2024-05-09T09:17:31.371Z,99.90
2024-05-09T09:20:02.996Z,99.90
2024-05-09T09:22:36.446Z,99.90
2024-05-09T09:25:04.595Z,99.90
2024-05-09T09:27:37.014Z,99.90
2024-05-09T09:30:13.182Z,99.90
2024-05-09T09:32:52.589Z,99.90
2024-05-09T09:35:20.262Z,99.90
2024-05-09T09:37:54.784Z,99.90
2024-05-09T09:40:30.968Z,99.90
2024-05-09T09:43:04.352Z,99.90
2024-05-09T09:45:33.735Z,99.90
2024-05-09T09:48:05.730Z,99.90
2024-05-09T09:50:35.608Z,99.90
2024-05-09T09:53:10.544Z,99.90
2024-05-09T09:55:40.140Z,99.90
2024-05-09T09:58:13.471Z,99.90
2024-05-09T10:00:42.438Z,99.90
2024-05-09T10:03:13.000Z,99.90
2024-05-09T10:05:44.250Z,99.90
2024-05-09T10:08:22.106Z,99.90
2024-05-09T10:10:50.094Z,99.90
2024-05-09T10:13:20.644Z,99.90
2024-05-09T10:15:53.878Z,99.90
2024-05-09T10:18:28.382Z,99.90
2024-05-09T10:20:59.659Z,99.90
2024-05-09T10:23:34.431Z,99.90
2024-05-09T10:26:03.702Z,99.90
2024-05-09T10:28:35.994Z,99.80
2024-05-09T10:31:07.691Z,99.30
2024-05-09T10:33:41.956Z,99.70
2024-05-09T10:36:13.224Z,99.80
2024-05-09T10:38:46.823Z,97.90
2024-05-09T10:41:14.584Z,98.10
2024-05-09T10:43:45.186Z,97.10
2024-05-09T10:46:14.400Z,96.20
2024-05-09T10:48:46.120Z,96.40
2024-05-09T10:51:14.415Z,96.80
2024-05-09T10:53:48.645Z,95.40
2024-05-09T10:56:17.040Z,95.50
2024-05-09T10:58:48.163Z,95.20
2024-05-09T11:01:17.202Z,94.30
2024-05-09T11:03:50.712Z,93.50
2024-05-09T11:06:18.991Z,93.70
2024-05-09T11:08:52.921Z,95.20
2024-05-09T11:11:20.814Z,95.90
2024-05-09T11:13:51.080Z,95.60
2024-05-09T11:16:20.778Z,94.70
2024-05-09T11:18:59.055Z,94.60
2024-05-09T11:21:27.082Z,95.90
2024-05-09T11:24:00.414Z,96.70
2024-05-09T11:26:29.613Z,94.70
2024-05-09T11:28:59.874Z,93.40
2024-05-09T11:31:27.798Z,93.80
2024-05-09T11:33:58.145Z,92.30
2024-05-09T11:36:25.809Z,93.50
2024-05-09T11:38:55.940Z,91.80
2024-05-09T11:41:27.189Z,92.80
2024-05-09T11:43:57.894Z,92.30
2024-05-09T11:46:25.616Z,90.90
2024-05-09T11:48:56.084Z,89.00
2024-05-09T11:51:23.781Z,90.00
2024-05-09T11:53:53.966Z,90.40
2024-05-09T11:56:22.180Z,86.20
2024-05-09T11:58:55.222Z,85.00
2024-05-09T12:01:25.121Z,85.80
2024-05-09T12:03:57.810Z,86.10
2024-05-09T12:06:25.957Z,88.20
2024-05-09T12:08:56.312Z,86.90
2024-05-09T12:11:24.046Z,85.90
2024-05-09T12:13:56.911Z,85.60
2024-05-09T12:16:25.500Z,84.40
2024-05-09T12:18:55.932Z,84.00
2024-05-09T12:21:23.645Z,86.40
2024-05-09T12:23:54.357Z,86.10
2024-05-09T12:26:22.151Z,83.10
2024-05-09T12:28:52.367Z,85.90
2024-05-09T12:31:22.629Z,83.90
2024-05-09T12:33:54.465Z,82.30
2024-05-09T12:36:22.142Z,83.60
2024-05-09T12:38:52.683Z,82.10
2024-05-09T12:41:20.303Z,83.20
2024-05-09T12:43:51.433Z,83.00
2024-05-09T12:46:24.607Z,80.40
2024-05-09T12:48:55.449Z,79.20
2024-05-09T12:51:23.160Z,77.80
2024-05-09T12:53:53.360Z,76.30
2024-05-09T12:56:20.924Z,78.90
2024-05-09T12:58:51.278Z,82.20
2024-05-09T13:01:21.701Z,80.50
2024-05-09T13:03:52.236Z,81.20
2024-05-09T13:06:19.909Z,78.20
2024-05-09T13:08:50.570Z,78.70
2024-05-09T13:11:18.300Z,78.50
2024-05-09T13:13:48.523Z,78.80
2024-05-09T13:16:16.182Z,78.90
2024-05-09T13:18:49.263Z,81.20
2024-05-09T13:21:16.944Z,81.00
2024-05-09T13:23:47.133Z,80.90
2024-05-09T13:26:14.820Z,81.20
2024-05-09T13:28:45.076Z,77.30
2024-05-09T13:31:12.852Z,76.10
2024-05-09T13:33:43.240Z,76.50
2024-05-09T13:36:14.107Z,76.80
2024-05-09T13:38:44.391Z,77.80
2024-05-09T13:41:12.241Z,76.60
2024-05-09T13:43:42.907Z,75.40
2024-05-09T13:46:10.765Z,72.20
2024-05-09T13:48:41.115Z,72.10
2024-05-09T13:51:08.841Z,71.10
2024-05-09T13:53:41.630Z,69.80
2024-05-09T13:56:09.390Z,66.10
2024-05-09T13:58:39.670Z,68.30
2024-05-09T14:01:07.498Z,68.40
2024-05-09T14:03:37.915Z,69.00
2024-05-09T14:06:07.590Z,69.80
2024-05-09T14:08:41.580Z,67.90
2024-05-09T14:11:09.217Z,69.80
2024-05-09T14:13:39.478Z,70.70
2024-05-09T14:16:07.909Z,69.30
2024-05-09T14:18:38.426Z,70.80
2024-05-09T14:21:06.224Z,71.30
2024-05-09T14:23:36.424Z,70.60
2024-05-09T14:26:06.696Z,70.60
2024-05-09T14:28:36.882Z,70.70
2024-05-09T14:31:04.679Z,70.10
2024-05-09T14:33:35.920Z,69.50
2024-05-09T14:36:03.750Z,69.60
2024-05-09T14:38:33.904Z,67.60
2024-05-09T14:41:01.494Z,67.60
2024-05-09T14:43:34.771Z,66.10
2024-05-09T14:46:02.646Z,66.80
2024-05-09T14:48:33.066Z,66.40
2024-05-09T14:51:00.847Z,65.90
2024-05-09T14:53:31.106Z,67.50
2024-05-09T14:55:58.734Z,68.00
2024-05-09T14:58:29.041Z,66.50
2024-05-09T15:00:59.494Z,67.70
2024-05-09T15:03:29.843Z,66.90
2024-05-09T15:05:57.801Z,67.20
2024-05-09T15:08:28.038Z,67.90
2024-05-09T15:10:55.870Z,69.10
2024-05-09T15:13:27.445Z,67.70
2024-05-09T15:15:55.950Z,67.50
2024-05-09T15:18:29.078Z,69.70
2024-05-09T15:20:56.897Z,72.10
2024-05-09T15:23:27.260Z,70.50
2024-05-09T15:25:54.832Z,69.70
2024-05-09T15:28:25.044Z,69.10
2024-05-09T15:30:52.734Z,68.10
2024-05-09T15:33:22.989Z,70.20
2024-05-09T15:35:54.376Z,70.80
2024-05-09T15:38:26.368Z,69.80
2024-05-09T15:40:54.946Z,70.70
2024-05-09T15:43:25.636Z,72.30
2024-05-09T15:45:54.196Z,71.60
2024-05-09T15:48:24.657Z,71.20
2024-05-09T15:50:54.956Z,71.00
2024-05-09T15:53:25.147Z,71.50
2024-05-09T15:55:52.789Z,71.20
2024-05-09T15:58:23.398Z,71.40
2024-05-09T16:00:52.408Z,71.70
2024-05-09T16:03:23.817Z,72.00
2024-05-09T16:05:57.446Z,72.40
2024-05-09T16:08:27.885Z,72.00
2024-05-09T16:10:55.636Z,71.70
2024-05-09T16:13:26.290Z,71.70
2024-05-09T16:15:54.139Z,73.00
2024-05-09T16:18:24.494Z,72.60
2024-05-09T16:20:59.993Z,73.40
2024-05-09T16:23:30.311Z,73.30
2024-05-09T16:25:58.058Z,75.00
2024-05-09T16:28:28.392Z,74.50
2024-05-09T16:30:56.006Z,75.50
2024-05-09T16:33:26.397Z,75.00
2024-05-09T16:35:57.637Z,75.00
2024-05-09T16:38:28.749Z,76.10
2024-05-09T16:40:56.371Z,76.20
2024-05-09T16:43:27.020Z,76.50
2024-05-09T16:45:54.838Z,77.00
2024-05-09T16:48:25.285Z,77.80
2024-05-09T16:50:52.915Z,78.00
2024-05-09T16:53:26.298Z,78.70
2024-05-09T16:55:54.061Z,78.40
2024-05-09T16:58:24.740Z,78.10
2024-05-09T17:00:52.455Z,78.90
2024-05-09T17:03:23.605Z,79.10
2024-05-09T17:05:51.528Z,79.00
2024-05-09T17:08:22.444Z,78.70
2024-05-09T17:10:52.804Z,78.30
2024-05-09T17:13:23.315Z,79.00
2024-05-09T17:15:53.937Z,79.40
2024-05-09T17:18:21.744Z,79.80
2024-05-09T17:20:52.460Z,80.80
2024-05-09T17:23:20.020Z,81.50
2024-05-09T17:25:50.191Z,80.60
2024-05-09T17:28:20.712Z,80.90
2024-05-09T17:30:51.153Z,81.00
2024-05-09T17:33:19.079Z,80.90
2024-05-09T17:35:50.383Z,82.10
2024-05-09T17:38:18.463Z,82.10
2024-05-09T17:40:48.655Z,82.60
2024-05-09T17:43:16.409Z,83.20
2024-05-09T17:45:49.359Z,83.60
2024-05-09T17:48:17.945Z,83.40
2024-05-09T17:50:48.143Z,84.80
2024-05-09T17:53:15.952Z,85.00
2024-05-09T17:55:46.143Z,85.00
2024-05-09T17:58:13.739Z,86.00
2024-05-09T18:00:44.117Z,86.80
2024-05-09T18:03:15.126Z,87.80
2024-05-09T18:05:46.036Z,88.60
2024-05-09T18:08:14.003Z,89.70
2024-05-09T18:10:44.794Z,90.40
2024-05-09T18:13:13.227Z,90.70
2024-05-09T18:15:45.080Z,90.80
2024-05-09T18:18:15.771Z,91.00
2024-05-09T18:20:46.620Z,91.30
2024-05-09T18:23:16.770Z,91.70
2024-05-09T18:25:48.678Z,91.70
2024-05-09T18:28:17.474Z,92.40
2024-05-09T18:30:48.202Z,92.30
2024-05-09T18:33:18.564Z,92.60
2024-05-09T18:35:48.955Z,93.10
2024-05-09T18:38:18.412Z,93.50
2024-05-09T18:40:49.652Z,93.90
2024-05-09T18:43:18.104Z,94.20
2024-05-09T18:45:49.578Z,94.70
2024-05-09T18:48:21.991Z,95.30
2024-05-09T18:50:52.430Z,95.70
2024-05-09T18:53:20.055Z,96.00
2024-05-09T18:55:50.284Z,96.30
2024-05-09T18:58:17.988Z,96.50
2024-05-09T19:00:50.493Z,96.80
2024-05-09T19:03:22.781Z,97.30
2024-05-09T19:05:53.320Z,97.60
2024-05-09T19:08:21.040Z,98.10
2024-05-09T19:10:52.542Z,98.30
2024-05-09T19:13:20.354Z,98.80
2024-05-09T19:15:51.125Z,99.40
2024-05-09T19:18:18.848Z,99.90
2024-05-09T19:20:51.894Z,99.90
2024-05-09T19:23:19.644Z,99.90
2024-05-09T19:25:49.776Z,99.90
2024-05-09T19:28:17.590Z,99.90
2024-05-09T19:30:48.223Z,99.90
2024-05-09T19:33:16.099Z,99.90
2024-05-09T19:35:46.345Z,99.90
2024-05-09T19:38:16.594Z,99.90
2024-05-09T19:40:46.906Z,99.90
2024-05-09T19:43:14.742Z,99.90
2024-05-09T19:45:45.172Z,99.90
2024-05-09T19:48:13.204Z,99.90
2024-05-09T19:50:44.823Z,99.90
2024-05-09T19:53:15.993Z,99.90
2024-05-09T19:55:46.487Z,99.90
2024-05-09T19:58:14.168Z,99.90
2024-05-09T20:00:45.051Z,99.90
2024-05-09T20:03:14.561Z,99.90
2024-05-09T20:05:46.709Z,99.90
2024-05-09T20:08:17.635Z,99.90
2024-05-09T20:10:48.104Z,99.90
2024-05-09T20:13:15.833Z,99.90
2024-05-09T20:15:46.033Z,99.90
2024-05-09T20:18:13.990Z,99.90
2024-05-09T20:20:45.475Z,99.90
2024-05-09T20:23:14.208Z,99.90
2024-05-09T20:25:47.377Z,99.90
2024-05-09T20:28:15.071Z,99.90
2024-05-09T20:30:45.331Z,99.90
2024-05-09T20:33:14.174Z,99.90
2024-05-09T20:35:44.419Z,99.90
2024-05-09T20:38:11.934Z,99.90
2024-05-09T20:40:43.701Z,99.90
2024-05-09T20:43:14.113Z,99.90
2024-05-09T20:45:44.475Z,99.90
2024-05-09T20:48:12.334Z,99.90
2024-05-09T20:50:44.023Z,99.90
2024-05-09T20:53:13.739Z,99.90
2024-05-09T20:55:45.611Z,99.90
2024-05-09T20:58:16.006Z,99.90
2024-05-09T21:00:46.824Z,99.90
2024-05-09T21:03:16.673Z,99.90
2024-05-09T21:05:48.584Z,99.90
2024-05-09T21:08:16.574Z,99.90
2024-05-09T21:10:46.791Z,99.90
2024-05-09T21:13:17.199Z,99.90
2024-05-09T21:15:48.271Z,99.90
2024-05-09T21:18:15.945Z,99.90
2024-05-09T21:20:46.313Z,99.90
2024-05-09T21:23:13.847Z,99.90
2024-05-09T21:25:44.016Z,99.90
2024-05-09T21:28:11.601Z,99.90
2024-05-09T21:30:44.621Z,99.90
2024-05-09T21:33:14.205Z,99.90
2024-05-09T21:35:45.631Z,99.90
2024-05-09T21:38:14.613Z,99.90
2024-05-09T21:40:45.605Z,99.90
2024-05-09T21:43:14.276Z,99.90
2024-05-09T21:45:47.260Z,99.90
2024-05-09T21:48:14.970Z,99.90
2024-05-09T21:50:45.246Z,99.90
2024-05-09T21:53:13.520Z,99.90
2024-05-09T21:55:44.485Z,99.90
2024-05-09T21:58:12.680Z,99.90
2024-05-09T22:00:45.567Z,99.90
2024-05-09T22:03:16.045Z,99.90
2024-05-09T22:05:46.233Z,99.90
2024-05-09T22:08:13.915Z,99.90
2024-05-09T22:10:44.125Z,99.90
2024-05-09T22:13:11.856Z,99.90
2024-05-09T22:15:42.836Z,99.90
2024-05-09T22:18:11.411Z,99.90
2024-05-09T22:20:46.318Z,99.90
2024-05-09T22:23:15.378Z,99.90
2024-05-09T22:25:45.579Z,99.90
2024-05-09T22:28:15.498Z,99.90
2024-05-09T22:30:47.181Z,99.90
2024-05-09T22:33:15.598Z,99.90
2024-05-09T22:35:48.526Z,99.90
2024-05-09T22:38:16.039Z,99.90
2024-05-09T22:40:49.210Z,99.90
2024-05-09T22:43:20.676Z,99.90
2024-05-09T22:45:52.404Z,99.90
2024-05-09T22:48:20.601Z,99.90
2024-05-09T22:50:53.591Z,99.90
2024-05-09T22:53:23.641Z,99.90
2024-05-09T22:55:53.790Z,99.90
2024-05-09T22:58:21.551Z,99.90
2024-05-09T23:00:52.012Z,99.90
2024-05-09T23:03:21.557Z,99.90
2024-05-09T23:05:54.678Z,99.90
2024-05-09T23:08:22.155Z,99.90
2024-05-09T23:10:52.593Z,99.90
2024-05-09T23:13:20.447Z,99.90
2024-05-09T23:15:50.728Z,99.90
2024-05-09T23:18:18.375Z,99.90
2024-05-09T23:20:48.569Z,99.90
2024-05-09T23:23:18.757Z,99.90
2024-05-09T23:25:48.968Z,99.90
2024-05-09T23:28:16.530Z,99.90
2024-05-09T23:30:46.678Z,99.90
2024-05-09T23:33:14.720Z,99.90
2024-05-09T23:35:45.997Z,99.90
2024-05-09T23:38:14.890Z,99.90
2024-05-09T23:40:47.684Z,99.90
2024-05-09T23:43:15.500Z,99.90
2024-05-09T23:45:46.376Z,99.90
2024-05-09T23:48:14.036Z,99.90
2024-05-09T23:50:44.538Z,99.90
2024-05-09T23:53:14.315Z,99.90
2024-05-09T23:55:47.170Z,99.90
2024-05-09T23:58:14.699Z,99.90
